Time,TemperatureF,DewpointF,PressureIn,WindDirection,WindDirectionDegrees,WindSpeedMPH,WindSpeedGustMPH,Humidity,HourlyPrecipIn,Conditions,Clouds,dailyrainin,SoftwareType,DateUTC
2013-08-21 00:14:00,66.0,62.0,30.12,North,359,0.0,-999.0,86,-99.99,,,-99.99,,2013-08-21 04:14:00,
2013-08-21 00:24:00,66.0,62.0,30.12,North,359,0.0,-999.0,86,-99.99,,,-99.99,,2013-08-21 04:24:00,
2013-08-21 00:54:00,65.0,61.0,30.13,North,4,0.0,-999.0,87,-99.99,,,-99.99,,2013-08-21 04:54:00,
2013-08-21 01:13:00,65.0,61.0,30.13,North,4,0.0,-999.0,87,-99.99,,,-99.99,,2013-08-21 05:13:00,
2013-08-21 01:23:00,65.0,61.0,30.13,North,359,0.0,-999.0,88,-99.99,,,-99.99,,2013-08-21 05:23:00,
2013-08-21 01:52:00,64.0,61.0,30.12,North,4,0.0,-999.0,89,-99.99,,,-99.99,,2013-08-21 05:52:00,
2013-08-21 02:12:00,63.0,60.0,30.12,North,4,0.0,-999.0,90,-99.99,,,-99.99,,2013-08-21 06:12:00,
2013-08-21 02:22:00,63.0,60.0,30.12,North,4,0.0,-999.0,90,-99.99,,,-99.99,,2013-08-21 06:22:00,
2013-08-21 02:42:00,63.0,60.0,30.12,North,4,0.0,-999.0,91,-99.99,,,-99.99,,2013-08-21 06:42:00,
2013-08-21 02:52:00,63.0,61.0,30.12,North,359,0.0,-999.0,92,-99.99,,,-99.99,,2013-08-21 06:52:00,
2013-08-21 03:11:00,63.0,60.0,30.12,North,4,0.0,-999.0,91,-99.99,,,-99.99,,2013-08-21 07:11:00,
2013-08-21 03:22:00,63.0,60.0,30.12,North,4,0.0,-999.0,91,-99.99,,,-99.99,,2013-08-21 07:22:00,
2013-08-21 03:53:00,63.0,60.0,30.12,North,4,0.0,-999.0,91,-99.99,,,-99.99,,2013-08-21 07:53:00,
2013-08-21 04:12:00,62.0,59.0,30.12,North,359,0.0,-999.0,90,-99.99,,,-99.99,,2013-08-21 08:12:00,
2013-08-21 04:22:00,62.0,59.0,30.13,North,359,0.0,-999.0,91,-99.99,,,-99.99,,2013-08-21 08:22:00,
2013-08-21 04:53:00,62.0,59.0,30.13,North,4,0.0,-999.0,91,-99.99,,,-99.99,,2013-08-21 08:53:00,
2013-08-21 05:11:00,62.0,59.0,30.14,North,4,0.0,-999.0,91,-99.99,,,-99.99,,2013-08-21 09:11:00,
2013-08-21 05:22:00,62.0,59.0,30.14,North,4,0.0,-999.0,91,-99.99,,,-99.99,,2013-08-21 09:22:00,
2013-08-21 05:54:00,61.0,59.0,30.14,North,4,0.0,-999.0,92,-99.99,,,-99.99,,2013-08-21 09:54:00,
2013-08-21 06:13:00,61.0,59.0,30.14,North,4,0.0,-999.0,92,-99.99,,,-99.99,,2013-08-21 10:13:00,
2013-08-21 06:23:00,61.0,59.0,30.15,North,4,0.0,-999.0,92,-99.99,,,-99.99,,2013-08-21 10:23:00,
2013-08-21 06:53:00,61.0,59.0,30.15,North,359,0.0,-999.0,92,-99.99,,,-99.99,,2013-08-21 10:53:00,
2013-08-21 07:12:00,61.0,59.0,30.15,North,4,0.0,-999.0,92,-99.99,,,-99.99,,2013-08-21 11:12:00,
2013-08-21 07:22:00,62.0,60.0,30.16,North,359,0.0,-999.0,92,-99.99,,,-99.99,,2013-08-21 11:22:00,
2013-08-21 07:42:00,62.0,60.0,30.16,North,4,0.0,-999.0,92,-99.99,,,-99.99,,2013-08-21 11:42:00,
2013-08-21 07:53:00,62.0,60.0,30.16,North,4,0.0,-999.0,92,-99.99,,,-99.99,,2013-08-21 11:53:00,
2013-08-21 08:12:00,63.0,61.0,30.16,North,4,0.0,-999.0,92,-99.99,,,-99.99,,2013-08-21 12:12:00,
2013-08-21 08:22:00,64.0,61.0,30.16,North,359,0.0,-999.0,91,-99.99,,,-99.99,,2013-08-21 12:22:00,
2013-08-21 08:52:00,65.0,62.0,30.16,North,4,0.0,-999.0,90,-99.99,,,-99.99,,2013-08-21 12:52:00,
2013-08-21 09:12:00,67.0,63.0,30.16,North,4,0.0,-999.0,88,-99.99,,,-99.99,,2013-08-21 13:12:00,
2013-08-21 09:21:00,68.0,64.0,30.16,North,4,0.0,-999.0,86,-99.99,,,-99.99,,2013-08-21 13:21:00,
2013-08-21 09:42:00,69.0,64.0,30.16,North,359,0.0,-999.0,85,-99.99,,,-99.99,,2013-08-21 13:42:00,
2013-08-21 09:52:00,71.0,65.0,30.16,North,4,0.0,-999.0,82,-99.99,,,-99.99,,2013-08-21 13:52:00,
2013-08-21 10:12:00,73.0,64.0,30.16,North,359,0.0,-999.0,74,-99.99,,,-99.99,,2013-08-21 14:12:00,
2013-08-21 10:21:00,76.0,65.0,30.16,North,4,0.0,-999.0,69,-99.99,,,-99.99,,2013-08-21 14:21:00,
2013-08-21 10:52:00,78.0,63.0,30.16,North,354,0.0,-999.0,61,-99.99,,,-99.99,,2013-08-21 14:52:00,
2013-08-21 11:11:00,79.0,63.0,30.16,North,359,1.0,-999.0,59,-99.99,,,-99.99,,2013-08-21 15:11:00,
2013-08-21 11:22:00,80.0,65.0,30.16,NNW,345,0.0,-999.0,60,-99.99,,,-99.99,,2013-08-21 15:22:00,
2013-08-21 11:43:00,81.0,66.0,30.16,South,178,0.0,-999.0,61,-99.99,,,-99.99,,2013-08-21 15:43:00,
2013-08-21 11:55:00,81.0,63.0,30.16,NE,37,1.0,-999.0,55,-99.99,,,-99.99,,2013-08-21 15:55:00,
2013-08-21 12:24:00,81.0,62.0,30.15,NNW,337,1.0,-999.0,53,-99.99,,,-99.99,,2013-08-21 16:24:00,
2013-08-21 12:53:00,81.0,63.0,30.15,NNW,345,1.0,-999.0,54,-99.99,,,-99.99,,2013-08-21 16:53:00,
2013-08-21 13:13:00,82.0,63.0,30.15,NNE,18,1.0,-999.0,52,-99.99,,,-99.99,,2013-08-21 17:13:00,
2013-08-21 13:23:00,82.0,63.0,30.15,North,359,3.0,-999.0,53,-99.99,,,-99.99,,2013-08-21 17:23:00,
2013-08-21 13:53:00,83.0,64.0,30.13,NNE,21,1.0,-999.0,53,-99.99,,,-99.99,,2013-08-21 17:53:00,
2013-08-21 14:12:00,83.0,65.0,30.13,NNE,20,1.0,-999.0,54,-99.99,,,-99.99,,2013-08-21 18:12:00,
2013-08-21 14:22:00,83.0,64.0,30.13,SSE,156,0.0,-999.0,52,-99.99,,,-99.99,,2013-08-21 18:22:00,
2013-08-21 14:52:00,84.0,63.0,30.11,NE,35,1.0,-999.0,49,-99.99,,,-99.99,,2013-08-21 18:52:00,
2013-08-21 15:12:00,85.0,64.0,30.11,West,275,0.0,-999.0,50,-99.99,,,-99.99,,2013-08-21 19:12:00,
2013-08-21 15:22:00,85.0,64.0,30.11,WNW,295,0.0,-999.0,49,-99.99,,,-99.99,,2013-08-21 19:22:00,
2013-08-21 15:52:00,85.0,62.0,30.11,North,11,1.0,-999.0,46,-99.99,,,-99.99,,2013-08-21 19:52:00,
2013-08-21 16:22:00,84.0,62.0,30.09,NNE,27,1.0,-999.0,47,-99.99,,,-99.99,,2013-08-21 20:22:00,
2013-08-21 16:52:00,84.0,62.0,30.09,NNE,28,1.0,-999.0,48,-99.99,,,-99.99,,2013-08-21 20:52:00,
2013-08-21 17:22:00,83.0,62.0,30.07,North,4,1.0,-999.0,49,-99.99,,,-99.99,,2013-08-21 21:22:00,
2013-08-21 17:55:00,82.0,62.0,30.07,NNW,347,0.0,-999.0,51,-99.99,,,-99.99,,2013-08-21 21:55:00,
2013-08-21 18:24:00,81.0,62.0,30.07,NNE,13,0.0,-999.0,53,-99.99,,,-99.99,,2013-08-21 22:24:00,
2013-08-21 18:53:00,79.0,66.0,30.06,NNE,13,0.0,-999.0,64,-99.99,,,-99.99,,2013-08-21 22:53:00,
2013-08-21 19:13:00,77.0,65.0,30.06,NNE,13,0.0,-999.0,67,-99.99,,,-99.99,,2013-08-21 23:13:00,
2013-08-21 19:22:00,76.0,65.0,30.06,NNE,13,0.0,-999.0,68,-99.99,,,-99.99,,2013-08-21 23:22:00,
2013-08-21 19:53:00,75.0,64.0,30.06,NNE,13,0.0,-999.0,69,-99.99,,,-99.99,,2013-08-21 23:53:00,
2013-08-21 20:12:00,74.0,63.0,30.06,NNE,13,0.0,-999.0,69,-99.99,,,-99.99,,2013-08-22 00:12:00,
2013-08-21 20:22:00,73.0,62.0,30.06,NNE,13,0.0,-999.0,68,-99.99,,,-99.99,,2013-08-22 00:22:00,
2013-08-21 20:42:00,73.0,62.0,30.06,NNE,13,0.0,-999.0,68,-99.99,,,-99.99,,2013-08-22 00:42:00,
2013-08-21 20:52:00,73.0,62.0,30.06,NNE,13,0.0,-999.0,68,-99.99,,,-99.99,,2013-08-22 00:52:00,
2013-08-21 21:11:00,73.0,62.0,30.07,NNE,13,0.0,-999.0,69,-99.99,,,-99.99,,2013-08-22 01:11:00,
2013-08-21 21:22:00,73.0,64.0,30.06,NNE,13,0.0,-999.0,73,-99.99,,,-99.99,,2013-08-22 01:22:00,
2013-08-21 21:42:00,72.0,63.0,30.06,NNE,13,0.0,-999.0,73,-99.99,,,-99.99,,2013-08-22 01:42:00,
2013-08-21 21:52:00,72.0,63.0,30.06,NNE,13,0.0,-999.0,73,-99.99,,,-99.99,,2013-08-22 01:52:00,
2013-08-21 22:22:00,71.0,62.0,30.07,North,4,0.0,-999.0,74,-99.99,,,-99.99,,2013-08-22 02:22:00,
2013-08-21 23:12:00,71.0,63.0,30.06,WSW,257,0.0,-999.0,76,-99.99,,,-99.99,,2013-08-22 03:12:00,
2013-08-21 23:22:00,70.0,63.0,30.06,WSW,251,0.0,-999.0,79,-99.99,,,-99.99,,2013-08-22 03:22:00,
2013-08-21 23:45:00,70.0,64.0,30.05,WSW,251,0.0,-999.0,80,-99.99,,,-99.99,,2013-08-22 03:45:00,
2013-08-21 23:54:00,69.0,63.0,30.05,WSW,251,0.0,-999.0,81,-99.99,,,-99.99,,2013-08-22 03:54:00,